Suula — OJKZ — position and weather

sailwx.info

Track history (hours):
 
Tides and Currents Weather Stations Pressure Air Temp Water Temp Dewpoint Dewpoint Depression Visibility Wind Speed Wind Dir Waves Ship Positions

Suula

Last reported at 2015-Apr-18 12:33 UTC. Time now 2015-Apr-18 13:14 UTC.
Position N 59°44' E 024°25'.

Length 140 m; draft 6.5 m.

Type: Tanker. MMSI: 230956996.

Date/timePositionNaut miles runAvg speedWind from/ knotsBaromVisibWave heightAir tempDewpointWater temp
2015-Apr-18 12:33N 59°44' E 024°25'1615.1
2015-Apr-18 11:28N 59°39' E 023°54'1414.8
2015-Apr-18 10:33N 59°35' E 023°28'5613.9
2015-Apr-18 06:31N 59°29' E 021°39'1615.0
2015-Apr-18 05:26N 59°33' E 021°07'  
2015-Apr-15 00:10N 59°32' E 021°13'914.5
2015-Apr-14 23:34N 59°31' E 021°30'1514.4
2015-Apr-14 22:33N 59°32' E 021°59'3614.5
2015-Apr-14 20:05N 59°38' E 023°08'814.3
2015-Apr-14 19:33N 59°39' E 023°23'1514.7
2015-Apr-14 18:33N 59°43' E 023°51'1514.6
2015-Apr-14 17:33N 59°47' E 024°19'12 0.3
2015-Apr-13 00:28N 59°46' E 024°42'1314.4
2015-Apr-12 23:33N 59°43' E 024°17'1514.4
2015-Apr-12 22:32N 59°38' E 023°49'1514.5
2015-Apr-12 21:30N 59°34' E 023°21'5412.9
2015-Apr-12 17:21N 59°33' E 021°35'1113.3
2015-Apr-12 16:33N 59°41' E 021°21'1212.3
2015-Apr-12 15:34N 59°53' E 021°29'  
2015-Apr-10 03:16N 59°32' E 021°13'1013.5
2015-Apr-10 02:32N 59°31' E 021°32'1313.4
2015-Apr-10 01:33N 59°32' E 021°58'4013.3
2015-Apr-09 22:33N 59°39' E 023°15'1313.3
2015-Apr-09 21:33N 59°42' E 023°41'1313.3
2015-Apr-09 20:33N 59°45' E 024°07'1313.4
2015-Apr-09 19:33N 59°49' E 024°32'1413.3
2015-Apr-09 18:31N 59°52' E 024°59'1513.1
2015-Apr-09 17:23N 59°58' E 025°26'1012.1
2015-Apr-09 16:33N 60°07' E 025°35'  
Track history (hours):
 
Tides and Currents Weather Stations Pressure Air Temp Water Temp Dewpoint Dewpoint Depression Visibility Wind Speed Wind Dir Waves Ship Positions

Suula

Last reported at 2015-Apr-18 12:33 UTC. Time now 2015-Apr-18 13:14 UTC.
Position N 59°44' E 024°25'.

Length 140 m; draft 6.5 m.

Type: Tanker. MMSI: 230956996.

Date/timePositionNaut miles runAvg speedWind from/ knotsBaromVisibWave heightAir tempDewpointWater temp
2015-Apr-18 12:33N 59°44' E 024°25'1615.1
2015-Apr-18 11:28N 59°39' E 023°54'1414.8
2015-Apr-18 10:33N 59°35' E 023°28'5613.9
2015-Apr-18 06:31N 59°29' E 021°39'1615.0
2015-Apr-18 05:26N 59°33' E 021°07'  
2015-Apr-15 00:10N 59°32' E 021°13'914.5
2015-Apr-14 23:34N 59°31' E 021°30'1514.4
2015-Apr-14 22:33N 59°32' E 021°59'3614.5
2015-Apr-14 20:05N 59°38' E 023°08'814.3
2015-Apr-14 19:33N 59°39' E 023°23'1514.7
2015-Apr-14 18:33N 59°43' E 023°51'1514.6
2015-Apr-14 17:33N 59°47' E 024°19'12 0.3
2015-Apr-13 00:28N 59°46' E 024°42'1314.4
2015-Apr-12 23:33N 59°43' E 024°17'1514.4
2015-Apr-12 22:32N 59°38' E 023°49'1514.5
2015-Apr-12 21:30N 59°34' E 023°21'5412.9
2015-Apr-12 17:21N 59°33' E 021°35'1113.3
2015-Apr-12 16:33N 59°41' E 021°21'1212.3
2015-Apr-12 15:34N 59°53' E 021°29'  
2015-Apr-10 03:16N 59°32' E 021°13'1013.5
2015-Apr-10 02:32N 59°31' E 021°32'1313.4
2015-Apr-10 01:33N 59°32' E 021°58'4013.3
2015-Apr-09 22:33N 59°39' E 023°15'1313.3
2015-Apr-09 21:33N 59°42' E 023°41'1313.3
2015-Apr-09 20:33N 59°45' E 024°07'1313.4
2015-Apr-09 19:33N 59°49' E 024°32'1413.3
2015-Apr-09 18:31N 59°52' E 024°59'1513.1
2015-Apr-09 17:23N 59°58' E 025°26'1012.1
2015-Apr-09 16:33N 60°07' E 025°35'  

Dump ship's entire track history